createdAt,value
2024-04-22T00:00:45.072Z,71.13
2024-04-22T00:01:45.082Z,71.13
2024-04-22T00:02:45.122Z,71.13
2024-04-22T00:03:45.176Z,71.13
2024-04-22T00:04:45.189Z,71.13
2024-04-22T00:05:45.106Z,71.13
2024-04-22T00:06:45.155Z,70.82
2024-04-22T00:07:45.121Z,70.82
2024-04-22T00:08:45.132Z,70.82
2024-04-22T00:09:45.135Z,70.82
2024-04-22T00:10:45.192Z,70.82
2024-04-22T00:11:45.202Z,70.93
2024-04-22T00:12:45.144Z,70.93
2024-04-22T00:13:45.203Z,70.93
2024-04-22T00:14:45.163Z,70.93
2024-04-22T00:15:45.192Z,72.25
2024-04-22T00:16:45.372Z,71.13
2024-04-22T00:17:45.262Z,72.15
2024-04-22T00:18:45.208Z,71.13
2024-04-22T00:19:45.282Z,72.39
2024-04-22T00:20:45.225Z,71.34
2024-04-22T00:21:45.220Z,72.35
2024-04-22T00:22:45.286Z,71.03
2024-04-22T00:23:45.232Z,72.29
2024-04-22T00:24:45.229Z,71.03
2024-04-22T00:25:45.253Z,72.07
2024-04-22T00:26:45.238Z,72.07
2024-04-22T00:27:45.252Z,72.07
2024-04-22T00:28:45.284Z,72.07
2024-04-22T00:29:45.267Z,72.07
2024-04-22T00:30:45.282Z,72.29
2024-04-22T00:31:45.362Z,72.29
2024-04-22T00:32:45.410Z,72.29
2024-04-22T00:33:45.315Z,72.29
2024-04-22T00:34:45.338Z,72.29
2024-04-22T00:35:45.338Z,71.83
2024-04-22T00:37:45.354Z,71.83
2024-04-22T00:38:45.338Z,71.83
2024-04-22T00:39:45.342Z,71.83
2024-04-22T00:40:45.395Z,72.04
2024-04-22T00:41:45.366Z,72.04
2024-04-22T00:42:45.389Z,72.04
2024-04-22T00:43:45.409Z,72.04
2024-04-22T00:44:45.395Z,72.04
2024-04-22T00:45:45.388Z,71.83
2024-04-22T00:46:45.424Z,72.88
2024-04-22T00:47:45.438Z,71.52
2024-04-22T00:48:45.420Z,71.52
2024-04-22T00:49:45.439Z,71.52
2024-04-22T00:50:45.425Z,71.52
2024-04-22T00:51:45.438Z,72.77
2024-04-22T00:52:45.432Z,72.88
2024-04-22T00:53:45.442Z,71.62
2024-04-22T00:54:45.462Z,71.62
2024-04-22T00:55:45.495Z,71.62
2024-04-22T00:56:45.473Z,71.62
2024-04-22T00:57:45.489Z,71.62
2024-04-22T00:58:45.515Z,71.52
2024-04-22T00:59:45.506Z,71.52
2024-04-22T01:00:45.545Z,72.88
2024-04-22T01:01:45.540Z,71.62
2024-04-22T01:02:45.531Z,72.88
2024-04-22T01:03:45.523Z,71.83
2024-04-22T01:04:45.569Z,71.83
2024-04-22T01:05:45.529Z,71.83
2024-04-22T01:06:45.554Z,71.83
2024-04-22T01:07:45.601Z,71.83
2024-04-22T01:08:45.571Z,72.07
2024-04-22T01:09:45.589Z,72.07
2024-04-22T01:10:45.637Z,72.07
2024-04-22T01:11:45.628Z,72.07
2024-04-22T01:12:45.611Z,72.07
2024-04-22T01:13:45.671Z,72.21
2024-04-22T01:14:45.636Z,72.21
2024-04-22T01:15:45.642Z,72.21
2024-04-22T01:16:45.692Z,72.21
2024-04-22T01:17:45.733Z,72.21
2024-04-22T01:18:45.646Z,72.77
2024-04-22T01:19:45.685Z,72.77
2024-04-22T01:20:45.654Z,72.77
2024-04-22T01:21:45.672Z,72.77
2024-04-22T01:22:45.711Z,72.77
2024-04-22T01:23:45.700Z,73.29
2024-04-22T01:24:45.718Z,73.29
2024-04-22T01:25:45.833Z,73.29
2024-04-22T01:26:45.742Z,73.29
2024-04-22T01:27:45.760Z,72.28
2024-04-22T01:28:45.798Z,73.32
2024-04-22T01:29:45.772Z,73.32
2024-04-22T01:30:45.784Z,73.32
2024-04-22T01:31:45.818Z,73.32
2024-04-22T01:32:45.921Z,73.32
2024-04-22T01:33:45.793Z,73.54
2024-04-22T01:34:45.826Z,73.54
2024-04-22T01:35:45.816Z,73.54
2024-04-22T01:36:45.825Z,73.54
2024-04-22T01:37:45.871Z,73.54
2024-04-22T01:38:45.959Z,72.91
2024-04-22T01:39:45.863Z,72.91
2024-04-22T01:40:45.886Z,73.99
2024-04-22T01:41:45.877Z,73.99
2024-04-22T01:42:45.888Z,73.99
2024-04-22T01:43:45.908Z,73.99
2024-04-22T01:44:45.908Z,72.94
2024-04-22T01:45:45.956Z,72.94
2024-04-22T01:46:45.987Z,72.94
2024-04-22T01:47:46.015Z,72.94
2024-04-22T01:48:45.911Z,72.94
2024-04-22T01:49:45.986Z,73.71
2024-04-22T01:50:45.931Z,73.71
2024-04-22T01:51:45.941Z,73.71
2024-04-22T01:52:46.036Z,73.71
2024-04-22T01:53:45.975Z,73.71
2024-04-22T01:54:46.006Z,74.02
2024-04-22T01:55:46.080Z,74.02
2024-04-22T01:56:46.002Z,74.02
2024-04-22T01:57:46.010Z,74.02
2024-04-22T01:58:46.107Z,75.07
2024-04-22T01:59:46.038Z,75.07
2024-04-22T02:00:46.079Z,75.07
2024-04-22T02:01:46.172Z,75.07
2024-04-22T02:02:46.145Z,75.07
2024-04-22T02:03:46.119Z,75.07
2024-04-22T02:04:46.108Z,75.07
2024-04-22T02:05:46.114Z,75.07
2024-04-22T02:06:46.099Z,74.93
2024-04-22T02:07:46.187Z,74.93
2024-04-22T02:08:46.107Z,74.93
2024-04-22T02:09:46.119Z,74.93
2024-04-22T02:10:46.219Z,73.78
2024-04-22T02:11:46.149Z,74.83
2024-04-22T02:12:46.155Z,74.83
2024-04-22T02:13:46.183Z,74.83
2024-04-22T02:15:46.162Z,74.83
2024-04-22T02:16:46.175Z,75.04
2024-04-22T02:17:46.338Z,75.04
2024-04-22T02:18:46.174Z,75.04
2024-04-22T02:19:46.235Z,75.04
2024-04-22T02:20:46.207Z,75.04
2024-04-22T02:21:46.230Z,75.04
2024-04-22T02:22:46.285Z,75.04
2024-04-22T02:23:46.236Z,75.04
2024-04-22T02:24:46.260Z,75.04
2024-04-22T02:26:46.263Z,74.93
2024-04-22T02:27:46.281Z,74.93
2024-04-22T02:28:46.326Z,74.93
2024-04-22T02:29:46.308Z,74.93
2024-04-22T02:30:46.290Z,74.93
2024-04-22T02:31:46.327Z,75.67
2024-04-22T02:32:46.399Z,75.67
2024-04-22T02:33:46.351Z,75.67
2024-04-22T02:34:46.400Z,75.67
2024-04-22T02:35:46.350Z,74.51
2024-04-22T02:36:46.359Z,75.67
2024-04-22T02:37:46.383Z,75.67
2024-04-22T02:38:46.370Z,75.67
2024-04-22T02:39:46.388Z,75.67
2024-04-22T02:40:46.484Z,75.67
2024-04-22T02:41:46.403Z,75.25
2024-04-22T02:42:46.429Z,75.25
2024-04-22T02:43:46.476Z,75.25
2024-04-22T02:44:46.425Z,75.25
2024-04-22T02:45:46.455Z,75.25
2024-04-22T02:46:46.496Z,74.93
2024-04-22T02:47:46.510Z,74.93
2024-04-22T02:48:46.464Z,74.93
2024-04-22T02:49:46.525Z,74.93
2024-04-22T02:50:46.473Z,74.93
2024-04-22T02:51:46.486Z,75.25
2024-04-22T02:52:46.537Z,75.25
2024-04-22T02:53:46.507Z,75.25
2024-04-22T02:54:46.510Z,75.25
2024-04-22T02:55:46.550Z,75.25
2024-04-22T02:56:46.514Z,74.86
2024-04-22T02:57:46.526Z,74.86
2024-04-22T02:58:46.564Z,74.86
2024-04-22T02:59:46.537Z,74.86
2024-04-22T03:00:46.622Z,74.86
2024-04-22T03:01:46.615Z,75.59
2024-04-22T03:02:46.585Z,75.59
2024-04-22T03:03:46.630Z,75.59
2024-04-22T03:04:46.616Z,75.59
2024-04-22T03:05:46.608Z,75.59
2024-04-22T03:06:46.604Z,75.80
2024-04-22T03:07:46.684Z,75.80
2024-04-22T03:08:46.616Z,75.80
2024-04-22T03:09:46.656Z,75.80
2024-04-22T03:10:46.683Z,75.80
2024-04-22T03:11:46.671Z,75.39
2024-04-22T03:13:49.413Z,75.39
2024-04-22T03:14:46.653Z,75.39
2024-04-22T03:15:46.681Z,75.39
2024-04-22T03:16:46.757Z,75.73
2024-04-22T03:17:46.831Z,75.73
2024-04-22T03:18:46.711Z,75.73
2024-04-22T03:19:46.746Z,75.73
2024-04-22T03:20:46.728Z,75.73
2024-04-22T03:21:46.736Z,75.63
2024-04-22T03:22:46.770Z,75.63
2024-04-22T03:23:46.756Z,75.73
2024-04-22T03:24:46.750Z,75.73
2024-04-22T03:25:46.762Z,75.73
2024-04-22T03:26:46.763Z,75.73
2024-04-22T03:27:46.767Z,75.73
2024-04-22T03:28:46.836Z,75.84
2024-04-22T03:29:46.798Z,75.84
2024-04-22T03:30:46.806Z,75.84
2024-04-22T03:31:46.898Z,75.84
2024-04-22T03:32:46.870Z,75.84
2024-04-22T03:33:46.837Z,76.47
2024-04-22T03:34:46.839Z,76.47
2024-04-22T03:35:46.848Z,76.47
2024-04-22T03:36:46.860Z,76.47
2024-04-22T03:37:46.893Z,76.47
2024-04-22T03:38:46.865Z,75.77
2024-04-22T03:39:46.878Z,75.77
2024-04-22T03:40:46.931Z,75.77
2024-04-22T03:41:46.896Z,75.77
2024-04-22T03:42:46.911Z,75.77
2024-04-22T03:43:46.948Z,76.22
2024-04-22T03:44:46.933Z,76.22
2024-04-22T03:45:46.935Z,76.22
2024-04-22T03:46:46.970Z,76.22
2024-04-22T03:47:47.040Z,76.22
2024-04-22T03:48:46.991Z,76.40
2024-04-22T03:49:47.019Z,76.40
2024-04-22T03:50:46.967Z,76.40
2024-04-22T03:51:46.989Z,76.40
2024-04-22T03:52:47.015Z,76.40
2024-04-22T03:53:47.014Z,76.43
2024-04-22T03:54:47.028Z,76.43
2024-04-22T03:55:47.075Z,76.43
2024-04-22T03:56:47.032Z,76.43
2024-04-22T03:57:49.821Z,76.43
2024-04-22T03:58:47.125Z,76.64
2024-04-22T03:59:47.057Z,76.64
2024-04-22T04:00:47.075Z,76.64
2024-04-22T04:01:47.167Z,76.64
2024-04-22T04:02:47.103Z,76.64
2024-04-22T04:03:47.143Z,76.54
2024-04-22T04:04:47.181Z,76.54
2024-04-22T04:05:47.193Z,76.54
2024-04-22T04:06:47.085Z,76.54
2024-04-22T04:07:47.166Z,76.54
2024-04-22T04:08:47.105Z,76.92
2024-04-22T04:09:47.160Z,76.92
2024-04-22T04:10:47.164Z,76.92
2024-04-22T04:11:47.180Z,76.92
2024-04-22T04:12:47.146Z,76.92
2024-04-22T04:13:47.390Z,76.29
2024-04-22T04:14:47.162Z,76.29
2024-04-22T04:15:47.165Z,76.29
2024-04-22T04:16:47.267Z,76.29
2024-04-22T04:17:47.198Z,76.29
2024-04-22T04:18:47.190Z,76.54
2024-04-22T04:19:47.294Z,76.54
2024-04-22T04:20:47.198Z,76.54
2024-04-22T04:21:47.212Z,77.55
2024-04-22T04:22:47.260Z,77.55
2024-04-22T04:23:47.253Z,76.16
2024-04-22T04:24:47.242Z,76.16
2024-04-22T04:25:47.310Z,76.16
2024-04-22T04:26:47.263Z,76.16
2024-04-22T04:27:47.269Z,76.16
2024-04-22T04:28:49.070Z,77.21
2024-04-22T04:29:47.281Z,77.21
2024-04-22T04:30:47.285Z,77.21
2024-04-22T04:32:47.404Z,77.21
2024-04-22T04:33:47.304Z,76.64
2024-04-22T04:34:47.340Z,76.64
2024-04-22T04:35:47.330Z,76.64
2024-04-22T04:36:47.338Z,76.64
2024-04-22T04:37:47.372Z,76.64
2024-04-22T04:38:47.387Z,77.13
2024-04-22T04:39:47.373Z,77.13
2024-04-22T04:40:47.432Z,77.13
2024-04-22T04:41:47.395Z,77.13
2024-04-22T04:42:47.391Z,77.13
2024-04-22T04:43:47.443Z,76.68
2024-04-22T04:44:47.395Z,76.68
2024-04-22T04:45:47.409Z,76.68
2024-04-22T04:46:47.425Z,76.68
2024-04-22T04:47:47.504Z,76.68
2024-04-22T04:48:47.748Z,76.47
2024-04-22T04:49:47.470Z,76.47
2024-04-22T04:50:47.463Z,76.47
2024-04-22T04:51:47.471Z,76.47
2024-04-22T04:52:47.534Z,76.47
2024-04-22T04:53:47.492Z,76.75
2024-04-22T04:54:50.056Z,76.75
2024-04-22T04:55:47.565Z,76.75
2024-04-22T04:56:47.520Z,76.75
2024-04-22T04:57:47.514Z,76.75
2024-04-22T04:58:47.544Z,75.91
2024-04-22T04:59:47.520Z,75.91
2024-04-22T05:00:47.620Z,75.91
2024-04-22T05:01:47.678Z,75.91
2024-04-22T05:02:47.618Z,75.91
2024-04-22T05:03:47.555Z,76.19
2024-04-22T05:04:47.617Z,76.19
2024-04-22T05:05:47.581Z,76.19
2024-04-22T05:06:47.585Z,76.19
2024-04-22T05:07:47.676Z,76.19
2024-04-22T05:08:47.588Z,76.05
2024-04-22T05:09:47.598Z,76.05
2024-04-22T05:10:47.751Z,76.05
2024-04-22T05:11:47.663Z,76.05
2024-04-22T05:12:47.610Z,76.05
2024-04-22T05:13:47.643Z,75.67
2024-04-22T05:14:47.640Z,75.67
2024-04-22T05:15:47.669Z,75.67
2024-04-22T05:16:47.709Z,75.67
2024-04-22T05:17:47.725Z,75.67
2024-04-22T05:18:47.713Z,75.84
2024-04-22T05:19:47.766Z,75.84
2024-04-22T05:20:47.732Z,75.84
2024-04-22T05:21:47.720Z,75.84
2024-04-22T05:22:47.802Z,75.84
2024-04-22T05:23:47.721Z,75.88
2024-04-22T05:24:47.720Z,75.88
2024-04-22T05:25:47.781Z,75.88
2024-04-22T05:26:47.766Z,75.88
2024-04-22T05:27:47.747Z,75.88
2024-04-22T05:28:47.838Z,75.95
2024-04-22T05:29:47.772Z,75.95
2024-04-22T05:30:47.781Z,75.95
2024-04-22T05:31:47.866Z,75.95
2024-04-22T05:32:47.876Z,75.95
2024-04-22T05:33:47.820Z,75.56
2024-04-22T05:34:47.847Z,75.56
2024-04-22T05:35:47.818Z,75.56
2024-04-22T05:36:47.838Z,75.56
2024-04-22T05:37:47.869Z,75.56
2024-04-22T05:38:47.863Z,76.26
2024-04-22T05:39:49.179Z,76.26
2024-04-22T05:40:47.907Z,76.26
2024-04-22T05:41:47.886Z,76.26
2024-04-22T05:42:47.897Z,76.26
2024-04-22T05:43:47.958Z,75.70
2024-04-22T05:44:47.940Z,75.70
2024-04-22T05:45:47.922Z,75.70
2024-04-22T05:46:48.042Z,75.70
2024-04-22T05:47:48.023Z,75.70
2024-04-22T05:48:47.963Z,75.64
2024-04-22T05:50:47.955Z,75.64
2024-04-22T05:51:47.974Z,75.64
2024-04-22T05:52:48.003Z,75.64
2024-04-22T05:53:47.983Z,75.81
2024-04-22T05:54:47.993Z,75.81
2024-04-22T05:55:48.066Z,75.81
2024-04-22T05:56:48.018Z,75.81
2024-04-22T05:57:49.325Z,75.81
2024-04-22T05:58:48.091Z,75.36
2024-04-22T05:59:48.038Z,75.36
2024-04-22T06:00:48.053Z,75.36
2024-04-22T06:01:48.115Z,75.36
2024-04-22T06:02:48.066Z,75.36
2024-04-22T06:03:48.145Z,74.90
2024-04-22T06:04:48.157Z,74.90
2024-04-22T06:05:48.088Z,74.90
2024-04-22T06:06:48.074Z,74.90
2024-04-22T06:07:48.143Z,74.90
2024-04-22T06:08:48.100Z,75.46
2024-04-22T06:09:48.113Z,75.46
2024-04-22T06:10:48.179Z,75.46
2024-04-22T06:11:57.604Z,75.46
2024-04-22T06:12:48.144Z,75.46
2024-04-22T06:13:48.188Z,75.53
2024-04-22T06:14:48.172Z,75.53
2024-04-22T06:15:48.206Z,75.53
2024-04-22T06:16:48.244Z,76.61
2024-04-22T06:17:48.187Z,76.61
2024-04-22T06:18:48.188Z,76.61
2024-04-22T06:19:48.233Z,76.61
2024-04-22T06:20:48.199Z,76.61
2024-04-22T06:21:48.233Z,77.05
2024-04-22T06:22:48.332Z,77.05
2024-04-22T06:23:48.229Z,77.05
2024-04-22T06:24:48.238Z,77.05
2024-04-22T06:25:48.267Z,75.95
2024-04-22T06:26:48.265Z,75.95
2024-04-22T06:27:48.268Z,75.95
2024-04-22T06:28:48.300Z,75.95
2024-04-22T06:29:48.283Z,75.95
2024-04-22T06:30:48.292Z,75.91
2024-04-22T06:31:48.359Z,75.91
2024-04-22T06:32:48.360Z,75.91
2024-04-22T06:33:48.295Z,75.91
2024-04-22T06:34:48.395Z,75.91
2024-04-22T06:35:48.331Z,74.87
2024-04-22T06:36:48.344Z,74.87
2024-04-22T06:37:48.392Z,74.87
2024-04-22T06:38:48.356Z,74.87
2024-04-22T06:39:48.390Z,74.87
2024-04-22T06:40:48.404Z,74.84
2024-04-22T06:41:48.407Z,74.84
2024-04-22T06:42:48.391Z,74.84
2024-04-22T06:43:48.488Z,73.60
2024-04-22T06:44:48.417Z,73.60
2024-04-22T06:45:48.410Z,73.60
2024-04-22T06:46:48.443Z,73.60
2024-04-22T06:47:48.458Z,73.60
2024-04-22T06:48:48.423Z,72.53
2024-04-22T06:49:48.482Z,72.53
2024-04-22T06:50:48.447Z,71.49
2024-04-22T06:51:48.457Z,72.53
2024-04-22T06:52:48.516Z,71.29
2024-04-22T06:53:48.476Z,71.29
2024-04-22T06:54:48.503Z,71.29
2024-04-22T06:55:48.540Z,72.46
2024-04-22T06:56:48.657Z,72.46
2024-04-22T06:58:48.575Z,72.46
2024-04-22T06:59:48.612Z,71.35
2024-04-22T07:00:48.581Z,72.52
2024-04-22T07:01:48.591Z,72.52
2024-04-22T07:02:48.673Z,72.52
2024-04-22T07:03:48.642Z,72.52
2024-04-22T07:04:48.746Z,72.52
2024-04-22T07:05:48.600Z,73.28
2024-04-22T07:06:48.589Z,73.28
2024-04-22T07:07:48.633Z,73.28
2024-04-22T07:08:48.609Z,73.28
2024-04-22T07:09:48.612Z,73.28
2024-04-22T07:10:48.647Z,73.04
2024-04-22T07:11:48.630Z,73.04
2024-04-22T07:12:48.633Z,73.04
2024-04-22T07:13:48.633Z,73.04
2024-04-22T07:14:48.642Z,73.04
2024-04-22T07:15:48.661Z,73.04
2024-04-22T07:16:48.729Z,73.04
2024-04-22T07:17:48.744Z,73.04
2024-04-22T07:18:50.370Z,73.04
2024-04-22T07:19:48.761Z,73.04
2024-04-22T07:20:48.704Z,72.87
2024-04-22T07:21:48.711Z,72.87
2024-04-22T07:22:48.755Z,72.87
2024-04-22T07:23:48.720Z,72.87
2024-04-22T07:24:57.255Z,72.87
2024-04-22T07:25:48.739Z,73.35
2024-04-22T07:26:48.733Z,73.35
2024-04-22T07:27:48.736Z,73.35
2024-04-22T07:28:48.754Z,72.11
2024-04-22T07:29:48.760Z,73.15
2024-04-22T07:30:48.775Z,73.04
2024-04-22T07:31:48.884Z,73.04
2024-04-22T07:32:48.868Z,73.04
2024-04-22T07:33:48.802Z,73.04
2024-04-22T07:34:48.913Z,73.04
2024-04-22T07:35:48.825Z,72.52
2024-04-22T07:36:48.833Z,72.52
2024-04-22T07:37:48.935Z,72.52
2024-04-22T07:38:48.848Z,72.52
2024-04-22T07:39:51.180Z,72.52
2024-04-22T07:40:48.900Z,72.39
2024-04-22T07:41:48.880Z,72.39
2024-04-22T07:42:48.942Z,72.39
2024-04-22T07:43:48.934Z,72.39
2024-04-22T07:44:48.901Z,72.39
2024-04-22T07:45:48.908Z,72.15
2024-04-22T07:46:49.036Z,71.11
2024-04-22T07:47:49.061Z,71.11
2024-04-22T07:48:48.930Z,71.11
2024-04-22T07:49:48.954Z,72.21
2024-04-22T07:50:48.955Z,72.21
2024-04-22T07:51:49.050Z,72.21
2024-04-22T07:52:49.005Z,72.21
2024-04-22T07:53:48.992Z,72.21
2024-04-22T07:55:49.011Z,72.87
2024-04-22T07:56:50.288Z,72.87
2024-04-22T07:57:49.007Z,72.87
2024-04-22T07:58:49.094Z,72.87
2024-04-22T07:59:49.028Z,73.15
2024-04-22T08:00:49.101Z,73.15
2024-04-22T08:01:49.099Z,73.15
2024-04-22T08:03:49.123Z,74.18
2024-04-22T08:04:49.294Z,74.18
2024-04-22T08:05:49.086Z,74.18
2024-04-22T08:06:49.071Z,74.18
2024-04-22T08:07:49.172Z,74.18
2024-04-22T08:08:49.103Z,74.94
2024-04-22T08:09:49.112Z,74.94
2024-04-22T08:10:49.221Z,74.94
2024-04-22T08:11:49.173Z,74.94
2024-04-22T08:12:49.122Z,73.81
2024-04-22T08:13:49.206Z,73.81
2024-04-22T08:14:49.156Z,73.81
2024-04-22T08:15:49.153Z,73.81
2024-04-22T08:16:49.253Z,73.81
2024-04-22T08:17:49.192Z,72.49
2024-04-22T08:18:49.182Z,72.49
2024-04-22T08:19:49.207Z,72.49
2024-04-22T08:20:49.181Z,72.49
2024-04-22T08:21:49.186Z,72.49
2024-04-22T08:22:49.235Z,71.84
2024-04-22T08:23:49.219Z,71.84
2024-04-22T08:24:49.247Z,71.84
2024-04-22T08:25:49.283Z,71.84
2024-04-22T08:26:49.263Z,71.84
2024-04-22T08:27:49.261Z,71.32
2024-04-22T08:28:49.365Z,71.32
2024-04-22T08:29:49.275Z,71.32
2024-04-22T08:30:49.288Z,71.32
2024-04-22T08:31:49.337Z,72.39
2024-04-22T08:32:49.494Z,72.39
2024-04-22T08:33:49.441Z,72.39
2024-04-22T08:34:49.407Z,72.39
2024-04-22T08:35:49.318Z,72.39
2024-04-22T08:36:49.329Z,72.36
2024-04-22T08:37:49.371Z,72.36
2024-04-22T08:38:49.353Z,72.36
2024-04-22T08:39:49.351Z,72.36
2024-04-22T08:40:49.431Z,72.36
2024-04-22T08:41:49.388Z,72.57
2024-04-22T08:42:49.378Z,72.57
2024-04-22T08:43:49.444Z,72.57
2024-04-22T08:44:49.399Z,72.57
2024-04-22T08:45:49.407Z,72.57
2024-04-22T08:46:49.506Z,72.87
2024-04-22T08:47:49.606Z,72.87
2024-04-22T08:48:49.441Z,71.84
2024-04-22T08:49:49.498Z,71.84
2024-04-22T08:50:49.441Z,72.91
2024-04-22T08:51:49.454Z,72.91
2024-04-22T08:52:55.907Z,72.91
2024-04-22T08:53:49.473Z,72.91
2024-04-22T08:54:49.476Z,72.91
2024-04-22T08:55:49.635Z,73.81
2024-04-22T08:56:49.498Z,73.81
2024-04-22T08:57:49.511Z,73.81
2024-04-22T08:58:49.546Z,73.81
2024-04-22T08:59:49.637Z,73.81
2024-04-22T09:00:49.559Z,74.25
2024-04-22T09:01:49.596Z,74.25
2024-04-22T09:02:49.640Z,74.25
2024-04-22T09:03:49.740Z,74.25
2024-04-22T09:05:49.620Z,74.91
2024-04-22T09:06:49.608Z,74.91
2024-04-22T09:07:49.634Z,74.91
2024-04-22T09:08:49.615Z,74.91
2024-04-22T09:10:05.349Z,74.91
2024-04-22T09:11:22.523Z,75.01
2024-04-22T09:12:06.493Z,75.01
2024-04-22T09:12:49.806Z,75.01
2024-04-22T09:13:49.711Z,75.01
2024-04-22T09:14:49.799Z,75.01
2024-04-22T09:15:49.669Z,75.42
2024-04-22T09:16:49.837Z,75.42
2024-04-22T09:17:49.930Z,75.42
2024-04-22T09:18:49.847Z,75.42
2024-04-22T09:19:49.705Z,75.42
2024-04-22T09:20:49.799Z,75.98
2024-04-22T09:22:49.790Z,75.98
2024-04-22T09:23:49.738Z,75.98
2024-04-22T09:24:49.761Z,75.98
2024-04-22T09:25:49.795Z,75.94
2024-04-22T09:26:49.770Z,75.94
2024-04-22T09:27:49.795Z,75.94
2024-04-22T09:28:49.889Z,75.94
2024-04-22T09:29:49.799Z,75.94
2024-04-22T09:30:49.800Z,75.01
2024-04-22T09:31:49.914Z,75.01
2024-04-22T09:32:49.990Z,75.01
2024-04-22T09:33:50.052Z,75.01
2024-04-22T09:34:49.985Z,75.01
2024-04-22T09:35:49.903Z,75.42
2024-04-22T09:36:49.859Z,75.42
2024-04-22T09:37:50.482Z,75.42
2024-04-22T09:38:50.152Z,75.42
2024-04-22T09:39:49.879Z,75.42
2024-04-22T09:40:51.706Z,75.22
2024-04-22T09:41:49.973Z,75.22
2024-04-22T09:42:49.993Z,75.22
2024-04-22T09:43:52.548Z,75.22
2024-04-22T09:44:50.031Z,75.22
2024-04-22T09:45:49.923Z,75.08
2024-04-22T09:46:50.002Z,75.08
2024-04-22T09:47:49.995Z,75.08
2024-04-22T09:48:50.370Z,75.08
2024-04-22T09:49:50.164Z,75.08
2024-04-22T09:50:50.076Z,74.73
2024-04-22T09:51:50.055Z,74.73
2024-04-22T09:52:50.132Z,74.73
2024-04-22T09:53:50.057Z,74.73
2024-04-22T09:54:52.172Z,74.73
2024-04-22T09:55:50.039Z,74.84
2024-04-22T09:56:50.046Z,74.84
2024-04-22T09:57:50.978Z,74.84
2024-04-22T09:58:50.120Z,74.84
2024-04-22T09:59:50.072Z,74.84
2024-04-22T10:00:51.796Z,74.53
2024-04-22T10:01:50.221Z,74.53
2024-04-22T10:02:50.111Z,74.53
2024-04-22T10:03:50.310Z,73.29
2024-04-22T10:04:50.174Z,73.29
2024-04-22T10:06:50.140Z,74.60
2024-04-22T10:07:50.109Z,74.60
2024-04-22T10:08:50.159Z,74.60
2024-04-22T10:09:50.129Z,74.60
2024-04-22T10:10:50.200Z,74.60
2024-04-22T10:11:50.707Z,75.80
2024-04-22T10:12:50.269Z,75.80
2024-04-22T10:13:50.315Z,75.80
2024-04-22T10:15:50.198Z,75.80
2024-04-22T10:16:50.224Z,75.70
2024-04-22T10:17:50.237Z,75.70
2024-04-22T10:18:50.543Z,76.74
2024-04-22T10:20:50.202Z,76.74
2024-04-22T10:21:50.283Z,76.74
2024-04-22T10:23:50.231Z,75.88
2024-04-22T10:24:52.553Z,75.88
2024-04-22T10:25:50.264Z,75.88
2024-04-22T10:26:56.931Z,75.88
2024-04-22T10:27:50.246Z,75.88
2024-04-22T10:28:50.399Z,75.63
2024-04-22T10:29:50.279Z,75.63
2024-04-22T10:30:50.283Z,74.60
2024-04-22T10:31:50.513Z,74.60
2024-04-22T10:32:50.342Z,74.60
2024-04-22T10:33:50.353Z,74.60
2024-04-22T10:34:50.316Z,74.60
2024-04-22T10:35:50.318Z,74.63
2024-04-22T10:36:52.394Z,74.63
2024-04-22T10:37:50.439Z,73.53
2024-04-22T10:38:50.387Z,73.53
2024-04-22T10:39:50.425Z,72.37
2024-04-22T10:40:50.504Z,72.37
2024-04-22T10:41:50.375Z,72.37
2024-04-22T10:42:51.931Z,71.27
2024-04-22T10:44:50.443Z,72.43
2024-04-22T10:45:50.664Z,72.43
2024-04-22T10:48:04.263Z,72.43
2024-04-22T10:48:52.510Z,72.02
2024-04-22T10:49:50.568Z,72.02
2024-04-22T10:50:50.464Z,72.02
2024-04-22T10:51:50.465Z,72.02
2024-04-22T10:52:50.585Z,72.02
2024-04-22T10:53:50.565Z,71.92
2024-04-22T10:54:53.249Z,70.89
2024-04-22T10:55:50.533Z,70.89
2024-04-22T10:57:50.567Z,72.16
2024-04-22T10:58:50.579Z,71.13
2024-04-22T10:59:50.610Z,71.13
2024-04-22T11:01:50.739Z,71.13
2024-04-22T11:02:50.769Z,72.19
2024-04-22T11:03:50.588Z,72.19
2024-04-22T11:04:50.629Z,71.03
2024-04-22T11:05:50.589Z,71.03
2024-04-22T11:06:51.471Z,71.03
2024-04-22T11:07:50.628Z,71.03
2024-04-22T11:08:50.586Z,70.99
2024-04-22T11:09:50.596Z,70.99
2024-04-22T11:10:50.709Z,70.99
2024-04-22T11:11:50.854Z,70.99
2024-04-22T11:12:50.616Z,70.99
2024-04-22T11:13:50.640Z,70.83
2024-04-22T11:14:50.752Z,69.70
2024-04-22T11:16:50.673Z,71.00
2024-04-22T11:17:50.835Z,71.00
2024-04-22T11:18:50.662Z,69.80
2024-04-22T11:19:50.776Z,68.61
2024-04-22T11:20:50.678Z,68.61
2024-04-22T11:22:50.726Z,68.61
2024-04-22T11:23:50.707Z,67.49
2024-04-22T11:24:50.719Z,67.49
2024-04-22T11:25:50.839Z,67.49
2024-04-22T11:26:50.727Z,65.99
2024-04-22T11:27:50.733Z,68.17
2024-04-22T11:28:50.815Z,68.17
2024-04-22T11:29:50.751Z,68.17
2024-04-22T11:30:50.767Z,69.19
2024-04-22T11:31:50.875Z,69.19
2024-04-22T11:32:51.040Z,69.19
2024-04-22T11:34:50.806Z,70.41
2024-04-22T11:35:50.786Z,71.47
2024-04-22T11:36:50.802Z,71.47
2024-04-22T11:37:50.903Z,71.47
2024-04-22T11:38:52.654Z,71.47
2024-04-22T11:40:50.940Z,72.51
2024-04-22T11:41:50.883Z,72.51
2024-04-22T11:42:50.872Z,72.51
2024-04-22T11:43:50.967Z,72.51
2024-04-22T11:44:50.899Z,72.51
2024-04-22T11:45:50.912Z,73.60
2024-04-22T11:46:51.049Z,73.60
2024-04-22T11:47:51.055Z,73.60
2024-04-22T11:49:50.963Z,73.60
2024-04-22T11:50:50.936Z,73.64
2024-04-22T11:51:50.941Z,73.64
2024-04-22T11:52:51.060Z,73.64
2024-04-22T11:53:50.970Z,72.23
2024-04-22T11:54:50.981Z,72.23
2024-04-22T11:55:51.056Z,70.96
2024-04-22T11:56:50.993Z,70.96
2024-04-22T11:57:51.006Z,70.96
2024-04-22T11:58:51.038Z,70.96
2024-04-22T11:59:51.013Z,70.96
2024-04-22T12:00:51.060Z,71.31
2024-04-22T12:01:51.144Z,71.31
2024-04-22T12:02:51.027Z,71.31
2024-04-22T12:03:51.063Z,69.88
2024-04-22T12:04:51.275Z,69.88
2024-04-22T12:05:51.096Z,68.78
2024-04-22T12:06:51.068Z,68.78
2024-04-22T12:07:51.190Z,68.78
2024-04-22T12:08:51.093Z,68.78
2024-04-22T12:09:51.096Z,67.29
2024-04-22T12:10:51.213Z,65.90
2024-04-22T12:12:51.120Z,67.05
2024-04-22T12:13:51.162Z,65.44
2024-04-22T12:14:51.160Z,65.44
2024-04-22T12:15:51.145Z,65.44
2024-04-22T12:16:51.212Z,66.96
2024-04-22T12:17:51.194Z,68.36
2024-04-22T12:18:51.168Z,68.36
2024-04-22T12:19:51.234Z,68.36
2024-04-22T12:20:51.197Z,68.36
2024-04-22T12:21:51.201Z,68.36
2024-04-22T12:22:51.344Z,69.52
2024-04-22T12:23:51.215Z,69.52
2024-04-22T12:24:51.234Z,69.52
2024-04-22T12:26:51.232Z,69.52
2024-04-22T12:27:54.893Z,70.37
2024-04-22T12:28:51.270Z,70.37
2024-04-22T12:29:51.260Z,70.37
2024-04-22T12:30:51.271Z,69.31
2024-04-22T12:31:51.345Z,69.31
2024-04-22T12:32:51.332Z,69.31
2024-04-22T12:34:01.395Z,69.31
2024-04-22T12:34:51.369Z,69.31
2024-04-22T12:35:51.334Z,69.59
2024-04-22T12:36:51.401Z,69.59
2024-04-22T12:37:51.377Z,68.53
2024-04-22T12:38:51.339Z,68.53
2024-04-22T12:39:51.345Z,68.53
2024-04-22T12:40:51.402Z,67.37
2024-04-22T12:41:51.363Z,66.34
2024-04-22T12:42:51.430Z,66.34
2024-04-22T12:43:51.552Z,65.11
2024-04-22T12:44:51.388Z,66.14
2024-04-22T12:45:51.393Z,67.30
2024-04-22T12:46:51.417Z,67.30
2024-04-22T12:47:51.554Z,67.30
2024-04-22T12:48:51.419Z,67.30
2024-04-22T12:49:54.382Z,67.30
2024-04-22T12:50:51.439Z,68.40
2024-04-22T12:51:51.440Z,67.30
2024-04-22T12:52:51.525Z,67.30
2024-04-22T12:53:51.453Z,68.50
2024-04-22T12:54:51.450Z,68.50
2024-04-22T12:55:51.504Z,68.50
2024-04-22T12:56:51.484Z,68.50
2024-04-22T12:57:51.494Z,68.50
2024-04-22T12:58:51.533Z,68.16
2024-04-22T12:59:51.508Z,68.16
2024-04-22T13:00:51.582Z,68.16
2024-04-22T13:01:51.556Z,68.16
2024-04-22T13:02:51.577Z,68.16
2024-04-22T13:03:51.576Z,68.34
2024-04-22T13:04:51.605Z,68.34
2024-04-22T13:05:51.564Z,68.34
2024-04-22T13:06:51.573Z,68.34
2024-04-22T13:07:51.696Z,68.34
2024-04-22T13:09:51.586Z,68.23
2024-04-22T13:10:51.642Z,68.23
2024-04-22T13:11:51.689Z,68.23
2024-04-22T13:12:51.617Z,68.23
2024-04-22T13:13:51.679Z,67.56
2024-04-22T13:14:51.666Z,67.56
2024-04-22T13:15:51.663Z,67.56
2024-04-22T13:16:51.816Z,66.53
2024-04-22T13:17:51.879Z,67.62
2024-04-22T13:18:51.703Z,67.62
2024-04-22T13:19:51.742Z,67.62